createdAt,value
2023-05-21T00:01:48.608Z,18.20
2023-05-21T00:06:52.240Z,18.10
2023-05-21T00:11:55.862Z,18.10
2023-05-21T00:17:00.910Z,18.00
2023-05-21T00:22:04.601Z,18.00
2023-05-21T00:27:08.155Z,18.00
2023-05-21T00:32:13.257Z,18.00
2023-05-21T00:37:17.376Z,17.90
2023-05-21T00:42:20.813Z,17.90
2023-05-21T00:47:27.013Z,17.90
2023-05-21T00:52:30.781Z,17.80
2023-05-21T00:57:37.182Z,17.70
2023-05-21T01:02:42.485Z,17.60
2023-05-21T01:07:46.706Z,17.60
2023-05-21T01:12:50.582Z,17.50
2023-05-21T01:17:57.369Z,17.40
2023-05-21T01:23:03.022Z,17.40
2023-05-21T01:28:06.676Z,17.30
2023-05-21T01:33:16.468Z,17.20
2023-05-21T01:38:27.611Z,17.20
2023-05-21T01:43:33.839Z,17.10
2023-05-21T01:48:37.759Z,17.00
2023-05-21T01:53:42.686Z,17.00
2023-05-21T01:58:46.434Z,17.00
2023-05-21T02:03:49.985Z,16.90
2023-05-21T02:08:55.705Z,16.80
2023-05-21T02:13:59.375Z,16.80
2023-05-21T02:19:04.779Z,16.70
2023-05-21T02:24:09.869Z,16.70
2023-05-21T02:29:13.409Z,16.70
2023-05-21T02:34:17.676Z,16.60
2023-05-21T02:39:22.574Z,16.60
2023-05-21T02:44:26.023Z,16.60
2023-05-21T02:49:29.536Z,16.60
2023-05-21T02:54:34.397Z,16.60
2023-05-21T02:59:37.871Z,16.60
2023-05-21T03:04:46.436Z,16.70
2023-05-21T03:09:51.840Z,16.70
2023-05-21T03:14:56.431Z,16.70
2023-05-21T03:19:59.913Z,16.70
2023-05-21T03:25:05.009Z,16.60
2023-05-21T03:30:09.595Z,16.70
2023-05-21T03:35:13.223Z,16.60
2023-05-21T03:40:18.167Z,16.60
2023-05-21T03:45:21.839Z,16.60
2023-05-21T03:50:25.372Z,16.60
2023-05-21T03:55:30.557Z,16.60
2023-05-21T04:00:34.776Z,16.60
2023-05-21T04:05:38.620Z,16.60
2023-05-21T04:10:43.638Z,16.70
2023-05-21T04:15:47.213Z,16.70
2023-05-21T04:20:50.824Z,16.70
2023-05-21T04:25:55.660Z,16.80
2023-05-21T04:30:59.287Z,16.80
2023-05-21T04:36:05.982Z,16.90
2023-05-21T04:41:10.994Z,17.00
2023-05-21T04:46:14.924Z,17.10
2023-05-21T04:51:18.471Z,17.10
2023-05-21T04:56:23.558Z,17.20
2023-05-21T05:01:29.450Z,17.30
2023-05-21T05:06:33.029Z,17.40
2023-05-21T05:11:38.208Z,17.50
2023-05-21T05:16:43.111Z,17.50
2023-05-21T05:21:47.047Z,17.70
2023-05-21T05:26:51.856Z,17.80
2023-05-21T05:31:55.372Z,17.90
2023-05-21T05:36:58.919Z,18.00
2023-05-21T05:42:03.745Z,18.10
2023-05-21T05:47:10.971Z,18.20
2023-05-21T05:52:14.492Z,18.30
2023-05-21T05:57:19.554Z,18.50
2023-05-21T06:02:23.348Z,18.60
2023-05-21T06:07:27.171Z,18.70
2023-05-21T06:12:32.038Z,18.80
2023-05-21T06:17:35.545Z,18.90
2023-05-21T06:22:39.270Z,19.00
2023-05-21T06:27:44.296Z,19.20
2023-05-21T06:32:47.875Z,19.30
2023-05-21T06:37:51.670Z,19.40
2023-05-21T06:42:57.992Z,19.50
2023-05-21T06:48:01.509Z,19.60
2023-05-21T06:53:05.511Z,19.70
2023-05-21T06:58:10.681Z,19.90
2023-05-21T07:03:14.404Z,20.00
2023-05-21T07:08:19.893Z,20.20
2023-05-21T07:13:24.800Z,20.30
2023-05-21T07:18:28.514Z,20.40
2023-05-21T07:23:32.248Z,20.50
2023-05-21T07:28:37.076Z,20.70
2023-05-21T07:33:40.950Z,20.80
2023-05-21T07:38:45.626Z,20.90
2023-05-21T07:43:50.743Z,21.10
2023-05-21T07:48:54.127Z,21.20
2023-05-21T07:53:57.699Z,21.40
2023-05-21T07:59:03.051Z,21.50
2023-05-21T08:04:06.851Z,21.60
2023-05-21T08:09:10.538Z,21.70
2023-05-21T08:14:15.611Z,21.70
2023-05-21T08:19:19.194Z,21.80
2023-05-21T08:24:22.944Z,22.00
2023-05-21T08:29:28.032Z,22.10
2023-05-21T08:34:34.094Z,22.10
2023-05-21T08:39:37.923Z,22.30
2023-05-21T08:44:47.207Z,22.40
2023-05-21T08:49:52.484Z,22.50
2023-05-21T08:54:57.870Z,22.60
2023-05-21T09:00:04.818Z,22.80
2023-05-21T09:05:11.611Z,22.90
2023-05-21T09:10:18.862Z,23.00
2023-05-21T09:15:24.538Z,23.10
2023-05-21T09:20:30.137Z,23.20
2023-05-21T09:25:35.295Z,23.40
2023-05-21T09:30:46.075Z,23.50
2023-05-21T09:35:51.028Z,23.70
2023-05-21T09:40:56.616Z,23.80
2023-05-21T09:46:02.271Z,23.90
2023-05-21T09:51:13.744Z,24.10
2023-05-21T09:56:22.536Z,24.20
2023-05-21T10:01:29.168Z,24.40
2023-05-21T10:06:33.751Z,24.60
2023-05-21T10:11:38.625Z,24.80
2023-05-21T10:16:45.259Z,24.90
2023-05-21T10:21:51.461Z,25.00
2023-05-21T10:26:58.045Z,25.20
2023-05-21T10:32:04.449Z,25.40
2023-05-21T10:37:13.252Z,25.50
2023-05-21T10:42:25.552Z,25.60
2023-05-21T10:48:03.472Z,25.70
2023-05-21T10:53:15.419Z,25.90
2023-05-21T10:58:41.696Z,26.10
2023-05-21T11:03:48.548Z,26.00
2023-05-21T11:08:55.300Z,26.20
2023-05-21T11:14:00.701Z,26.30
2023-05-21T11:19:05.654Z,26.50
2023-05-21T11:24:11.279Z,26.40
2023-05-21T11:29:16.453Z,26.60
2023-05-21T11:34:28.378Z,26.70
2023-05-21T11:39:40.688Z,26.80
2023-05-21T11:44:45.477Z,27.00
2023-05-21T11:49:50.426Z,27.10
2023-05-21T11:54:55.587Z,27.30
2023-05-21T12:00:00.237Z,27.20
2023-05-21T12:05:06.424Z,27.40
2023-05-21T12:10:11.099Z,27.50
2023-05-21T12:15:15.072Z,27.50
2023-05-21T12:20:21.002Z,27.70
2023-05-21T12:25:25.398Z,27.80
2023-05-21T12:30:30.317Z,27.80
2023-05-21T12:35:35.805Z,27.90
2023-05-21T12:40:40.517Z,28.10
2023-05-21T12:45:44.663Z,28.30
2023-05-21T12:50:49.807Z,28.40
2023-05-21T12:55:56.377Z,28.60
2023-05-21T13:01:00.936Z,28.80
2023-05-21T13:06:08.424Z,28.90
2023-05-21T13:11:11.948Z,29.10
2023-05-21T13:16:16.416Z,29.10
2023-05-21T13:21:21.306Z,29.10
2023-05-21T13:26:25.072Z,29.20
2023-05-21T13:31:28.606Z,29.30
2023-05-21T13:36:33.695Z,29.50
2023-05-21T13:41:37.212Z,29.60
2023-05-21T13:46:40.891Z,29.70
2023-05-21T13:51:45.879Z,29.90
2023-05-21T13:56:49.885Z,30.20
2023-05-21T14:01:53.759Z,30.60
2023-05-21T14:06:59.430Z,31.30
2023-05-21T14:12:06.256Z,31.70
2023-05-21T14:17:10.156Z,32.80
2023-05-21T14:22:14.995Z,34.20
2023-05-21T14:27:18.546Z,34.90
2023-05-21T14:32:22.794Z,34.60
2023-05-21T14:37:27.904Z,34.80
2023-05-21T14:42:32.103Z,35.70
2023-05-21T14:47:36.680Z,35.40
2023-05-21T14:52:42.746Z,34.90
2023-05-21T14:57:46.405Z,34.30
2023-05-21T15:02:50.011Z,33.70
2023-05-21T15:07:55.985Z,33.00
2023-05-21T15:12:59.584Z,32.50
2023-05-21T15:18:03.302Z,31.90
2023-05-21T15:23:16.740Z,31.60
2023-05-21T15:28:21.551Z,31.40
2023-05-21T15:33:25.408Z,31.20
2023-05-21T15:38:30.252Z,31.20
2023-05-21T15:43:33.933Z,31.20
2023-05-21T15:48:37.980Z,31.20
2023-05-21T15:53:43.057Z,31.00
2023-05-21T15:58:46.549Z,30.80
2023-05-21T16:03:50.367Z,30.90
2023-05-21T16:08:55.356Z,31.10
2023-05-21T16:13:58.821Z,31.20
2023-05-21T16:19:02.734Z,31.20
2023-05-21T16:24:08.851Z,31.20
2023-05-21T16:29:12.395Z,31.10
2023-05-21T16:34:16.501Z,31.00
2023-05-21T16:39:21.448Z,30.50
2023-05-21T16:44:25.236Z,30.10
2023-05-21T16:49:28.705Z,29.80
2023-05-21T16:54:34.165Z,29.70
2023-05-21T16:59:37.783Z,29.90
2023-05-21T17:04:41.335Z,30.00
2023-05-21T17:09:46.187Z,30.00
2023-05-21T17:14:49.620Z,29.80
2023-05-21T17:19:53.135Z,29.50
2023-05-21T17:24:58.730Z,29.30
2023-05-21T17:30:02.706Z,29.00
2023-05-21T17:35:07.234Z,28.70
2023-05-21T17:40:13.271Z,28.50
2023-05-21T17:45:16.779Z,28.10
2023-05-21T17:50:20.213Z,27.90
2023-05-21T17:55:25.085Z,27.70
2023-05-21T18:00:28.601Z,27.50
2023-05-21T18:05:32.085Z,27.40
2023-05-21T18:10:37.176Z,27.20
2023-05-21T18:15:40.860Z,27.00
2023-05-21T18:20:45.131Z,26.70
2023-05-21T18:25:50.132Z,26.50
2023-05-21T18:30:55.261Z,26.30
2023-05-21T18:35:59.736Z,26.10
2023-05-21T18:41:05.126Z,25.90
2023-05-21T18:46:09.076Z,25.80
2023-05-21T18:51:12.706Z,25.70
2023-05-21T18:56:17.709Z,25.40
2023-05-21T19:01:21.276Z,25.20
2023-05-21T19:06:25.671Z,25.00
2023-05-21T19:11:34.353Z,24.80
2023-05-21T19:16:38.196Z,24.60
2023-05-21T19:21:41.838Z,24.40
2023-05-21T19:26:47.165Z,24.20
2023-05-21T19:31:50.667Z,24.10
2023-05-21T19:36:54.975Z,23.90
2023-05-21T19:41:59.808Z,23.70
2023-05-21T19:47:03.722Z,23.70
2023-05-21T19:52:07.578Z,23.60
2023-05-21T19:57:13.332Z,23.60
2023-05-21T20:02:19.050Z,23.50
2023-05-21T20:07:22.621Z,23.40
2023-05-21T20:12:27.556Z,23.30
2023-05-21T20:17:33.987Z,23.10
2023-05-21T20:22:37.885Z,23.10
2023-05-21T20:27:43.009Z,22.90
2023-05-21T20:32:46.533Z,22.80
2023-05-21T20:37:50.632Z,22.60
2023-05-21T20:42:55.464Z,22.50
2023-05-21T20:48:01.373Z,22.40
2023-05-21T20:53:05.305Z,22.20
2023-05-21T20:58:10.096Z,22.10
2023-05-21T21:03:13.702Z,21.90
2023-05-21T21:08:17.698Z,21.90
2023-05-21T21:13:22.564Z,21.90
2023-05-21T21:18:26.051Z,21.90
2023-05-21T21:23:30.115Z,21.90
2023-05-21T21:28:34.948Z,21.90
2023-05-21T21:33:38.479Z,21.80
2023-05-21T21:38:42.377Z,21.80
2023-05-21T21:43:47.128Z,21.60
2023-05-21T21:48:50.540Z,21.40
2023-05-21T21:53:53.984Z,21.20
2023-05-21T21:58:58.808Z,21.00
2023-05-21T22:04:02.615Z,20.90
2023-05-21T22:09:06.508Z,20.90
2023-05-21T22:14:11.644Z,20.90
2023-05-21T22:19:17.894Z,20.90
2023-05-21T22:24:32.156Z,20.80
2023-05-21T22:29:38.093Z,20.80
